createdAt,value
2023-02-21T00:03:25.202Z,101916.56
2023-02-21T00:08:45.059Z,101909.97
2023-02-21T00:14:05.355Z,101908.47
2023-02-21T00:19:25.589Z,101904.28
2023-02-21T00:24:45.370Z,101911.97
2023-02-21T00:30:07.569Z,101915.53
2023-02-21T00:35:28.034Z,101914.53
2023-02-21T00:40:47.852Z,101919.38
2023-02-21T00:46:08.228Z,101917.66
2023-02-21T00:51:28.704Z,101907.25
2023-02-21T00:56:48.537Z,101896.50
2023-02-21T01:02:09.022Z,101895.75
2023-02-21T01:07:29.383Z,101881.56
2023-02-21T01:12:49.165Z,101888.56
2023-02-21T01:18:09.487Z,101882.28
2023-02-21T01:23:29.875Z,101882.13
2023-02-21T01:28:50.156Z,101875.97
2023-02-21T01:34:10.146Z,101878.47
2023-02-21T01:39:31.293Z,101879.09
2023-02-21T01:44:58.641Z,101869.78
2023-02-21T01:50:20.922Z,101877.75
2023-02-21T01:55:41.230Z,101873.41
2023-02-21T02:01:01.700Z,101876.97
2023-02-21T02:06:28.175Z,101883.59
2023-02-21T02:12:16.374Z,101878.91
2023-02-21T02:17:36.260Z,101877.44
2023-02-21T02:22:49.683Z,101869.38
2023-02-21T02:28:22.025Z,101862.69
2023-02-21T02:34:05.502Z,101860.84
2023-02-21T02:39:30.197Z,101865.31
2023-02-21T02:44:39.948Z,101862.59
2023-02-21T02:49:44.462Z,101855.13
2023-02-21T02:54:45.947Z,101851.94
2023-02-21T02:59:47.861Z,101853.91
2023-02-21T03:05:08.707Z,101842.78
2023-02-21T03:10:37.952Z,101849.94
2023-02-21T03:15:51.481Z,101864.78
2023-02-21T03:20:59.708Z,101864.63
2023-02-21T03:26:04.835Z,101860.19
2023-02-21T03:31:08.974Z,101868.09
2023-02-21T03:36:10.767Z,101873.16
2023-02-21T03:41:13.260Z,101874.91
2023-02-21T03:46:15.019Z,101864.88
2023-02-21T03:51:16.940Z,101881.34
2023-02-21T03:56:18.640Z,101874.50
2023-02-21T04:01:20.227Z,101871.41
2023-02-21T04:06:21.772Z,101871.91
2023-02-21T04:11:23.418Z,101858.28
2023-02-21T04:16:24.995Z,101860.28
2023-02-21T04:21:26.504Z,101863.47
2023-02-21T04:26:30.009Z,101866.19
2023-02-21T04:31:32.552Z,101865.47
2023-02-21T04:36:34.139Z,101868.31
2023-02-21T04:41:35.691Z,101859.78
2023-02-21T04:46:37.280Z,101860.78
2023-02-21T04:51:38.755Z,101864.00
2023-02-21T04:56:40.323Z,101862.25
2023-02-21T05:01:41.880Z,101860.91
2023-02-21T05:06:43.439Z,101867.97
2023-02-21T05:11:45.019Z,101865.72
2023-02-21T05:16:46.695Z,101858.56
2023-02-21T05:21:48.273Z,101879.22
2023-02-21T05:26:50.236Z,101872.91
2023-02-21T05:31:51.883Z,101873.03
2023-02-21T05:36:53.467Z,101866.59
2023-02-21T05:41:54.987Z,101879.50
2023-02-21T05:46:56.519Z,101880.81
2023-02-21T05:51:58.042Z,101877.84
2023-02-21T05:56:59.737Z,101872.25
2023-02-21T06:02:01.369Z,101878.34
2023-02-21T06:07:02.886Z,101880.56
2023-02-21T06:12:04.448Z,101869.84
2023-02-21T06:17:05.920Z,101881.88
2023-02-21T06:22:07.512Z,101872.97
2023-02-21T06:27:09.053Z,101872.84
2023-02-21T06:32:10.651Z,101881.41
2023-02-21T06:37:14.164Z,101888.09
2023-02-21T06:42:16.853Z,101877.00
2023-02-21T06:47:18.761Z,101873.34
2023-02-21T06:52:20.365Z,101875.06
2023-02-21T06:57:21.913Z,101878.25
2023-02-21T07:02:23.667Z,101875.13
2023-02-21T07:07:25.169Z,101871.16
2023-02-21T07:12:27.858Z,101874.88
2023-02-21T07:17:29.459Z,101873.38
2023-02-21T07:22:31.299Z,101873.09
2023-02-21T07:27:32.839Z,101879.41
2023-02-21T07:32:34.375Z,101876.19
2023-02-21T07:37:35.922Z,101883.94
2023-02-21T07:42:37.479Z,101893.38
2023-02-21T07:47:39.043Z,101887.94
2023-02-21T07:52:40.552Z,101895.50
2023-02-21T07:57:42.086Z,101886.56
2023-02-21T08:02:52.895Z,101897.34
2023-02-21T08:07:55.958Z,101894.03
2023-02-21T08:12:57.462Z,101892.94
2023-02-21T08:17:59.427Z,101903.56
2023-02-21T08:23:00.924Z,101902.19
2023-02-21T08:28:02.459Z,101896.22
2023-02-21T08:33:04.088Z,101897.47
2023-02-21T08:38:05.804Z,101909.50
2023-02-21T08:43:07.388Z,101904.38
2023-02-21T08:48:08.913Z,101893.72
2023-02-21T08:53:15.283Z,101892.97
2023-02-21T08:58:17.057Z,101866.97
2023-02-21T09:03:18.540Z,101884.03
2023-02-21T09:08:22.128Z,101888.13
2023-02-21T09:13:23.716Z,101885.13
2023-02-21T09:18:25.738Z,101878.16
2023-02-21T09:23:29.763Z,101878.34
2023-02-21T09:28:31.696Z,101878.78
2023-02-21T09:33:33.248Z,101872.78
2023-02-21T09:38:34.786Z,101873.63
2023-02-21T09:43:43.160Z,101858.75
2023-02-21T09:48:45.449Z,101865.38
2023-02-21T09:53:48.699Z,101860.13
2023-02-21T09:58:50.643Z,101864.44
2023-02-21T10:04:14.948Z,101863.91
2023-02-21T10:09:26.737Z,101872.84
2023-02-21T10:14:33.816Z,101865.56
2023-02-21T10:19:37.867Z,101870.47
2023-02-21T10:24:39.421Z,101868.50
2023-02-21T10:30:05.447Z,101875.97
2023-02-21T10:35:07.752Z,101875.72
2023-02-21T10:40:17.959Z,101882.63
2023-02-21T10:45:20.445Z,101872.13
2023-02-21T10:50:43.845Z,101869.69
2023-02-21T10:55:47.405Z,101877.03
2023-02-21T11:00:49.352Z,101882.09
2023-02-21T11:05:52.515Z,101884.97
2023-02-21T11:10:55.484Z,101874.75
2023-02-21T11:16:17.074Z,101876.63
2023-02-21T11:21:19.902Z,101877.22
2023-02-21T11:26:21.592Z,101882.09
2023-02-21T11:31:30.151Z,101866.91
2023-02-21T11:36:35.416Z,101867.03
2023-02-21T11:41:58.961Z,101853.38
2023-02-21T11:47:39.696Z,101856.13
2023-02-21T11:52:47.792Z,101860.28
2023-02-21T11:58:06.127Z,101858.00
2023-02-21T12:03:54.912Z,101852.97
2023-02-21T12:08:59.211Z,101851.09
2023-02-21T12:14:27.140Z,101841.09
2023-02-21T12:19:52.027Z,101846.22
2023-02-21T12:25:03.338Z,101838.47
2023-02-21T12:30:11.097Z,101835.31
2023-02-21T12:35:40.367Z,101831.28
2023-02-21T12:40:52.101Z,101827.97
2023-02-21T12:45:58.912Z,101814.75
2023-02-21T12:51:08.258Z,101825.22
2023-02-21T12:56:18.248Z,101817.63
2023-02-21T13:01:32.307Z,101820.63
2023-02-21T13:06:38.542Z,101816.94
2023-02-21T13:11:43.526Z,101819.94
2023-02-21T13:16:45.465Z,101800.84
2023-02-21T13:22:03.017Z,101810.75
2023-02-21T13:27:26.174Z,101803.72
2023-02-21T13:32:27.946Z,101797.41
2023-02-21T13:37:32.715Z,101797.38
2023-02-21T13:42:37.737Z,101792.19
2023-02-21T13:47:57.155Z,101783.59
2023-02-21T13:53:22.644Z,101790.59
2023-02-21T13:58:31.445Z,101786.47
2023-02-21T14:03:34.505Z,101786.16
2023-02-21T14:08:42.813Z,101772.66
2023-02-21T14:13:47.144Z,101780.66
2023-02-21T14:19:17.657Z,101777.91
2023-02-21T14:24:25.776Z,101772.16
2023-02-21T14:29:36.359Z,101778.28
2023-02-21T14:34:42.602Z,101769.38
2023-02-21T14:39:47.503Z,101774.06
2023-02-21T14:44:56.690Z,101767.91
2023-02-21T14:50:07.216Z,101770.22
2023-02-21T14:55:39.956Z,101773.59
2023-02-21T15:00:50.317Z,101766.31
2023-02-21T15:06:14.095Z,101766.72
2023-02-21T15:11:30.939Z,101756.66
2023-02-21T15:16:32.507Z,101761.69
2023-02-21T15:21:34.044Z,101760.66
2023-02-21T15:26:35.555Z,101760.47
2023-02-21T15:31:41.462Z,101766.47
2023-02-21T15:36:43.044Z,101759.94
2023-02-21T15:41:50.754Z,101763.91
2023-02-21T15:46:56.087Z,101756.03
2023-02-21T15:51:58.187Z,101757.19
2023-02-21T15:57:11.666Z,101754.28
2023-02-21T16:02:21.053Z,101757.03
2023-02-21T16:07:28.484Z,101750.13
2023-02-21T16:12:35.153Z,101751.25
2023-02-21T16:17:41.372Z,101747.22
2023-02-21T16:23:06.742Z,101742.72
2023-02-21T16:28:13.001Z,101751.19
2023-02-21T16:33:15.016Z,101747.22
2023-02-21T16:38:20.040Z,101735.19
2023-02-21T16:43:27.009Z,101739.78
2023-02-21T16:48:33.207Z,101735.34
2023-02-21T16:53:34.896Z,101746.06
2023-02-21T16:58:39.931Z,101743.63
2023-02-21T17:03:42.343Z,101743.50
2023-02-21T17:08:43.880Z,101737.91
2023-02-21T17:13:45.562Z,101742.88
2023-02-21T17:18:47.101Z,101739.72
2023-02-21T17:23:48.588Z,101742.97
2023-02-21T17:28:51.304Z,101742.22
2023-02-21T17:33:52.817Z,101737.38
2023-02-21T17:38:54.681Z,101741.56
2023-02-21T17:43:56.266Z,101735.81
2023-02-21T17:48:57.732Z,101739.94
2023-02-21T17:53:59.407Z,101737.25
2023-02-21T17:59:01.136Z,101736.66
2023-02-21T18:04:02.802Z,101737.78
2023-02-21T18:09:05.857Z,101733.47
2023-02-21T18:14:07.391Z,101731.66
2023-02-21T18:19:09.082Z,101736.31
2023-02-21T18:24:13.111Z,101742.00
2023-02-21T18:29:14.684Z,101741.28
2023-02-21T18:34:16.245Z,101743.28
2023-02-21T18:39:19.287Z,101745.00
2023-02-21T18:44:20.825Z,101742.44
2023-02-21T18:49:23.040Z,101737.72
2023-02-21T18:54:24.526Z,101734.41
2023-02-21T18:59:26.197Z,101742.66
2023-02-21T19:04:27.672Z,101734.41
2023-02-21T19:09:29.504Z,101737.47
2023-02-21T19:14:31.256Z,101732.03
2023-02-21T19:19:32.818Z,101726.59
2023-02-21T19:24:34.362Z,101718.56
2023-02-21T19:29:36.386Z,101722.88
2023-02-21T19:34:37.927Z,101713.63
2023-02-21T19:39:39.463Z,101717.19
2023-02-21T19:44:40.993Z,101701.88
2023-02-21T19:49:45.996Z,101716.34
2023-02-21T19:54:47.662Z,101710.63
2023-02-21T19:59:49.253Z,101711.88
2023-02-21T20:04:50.751Z,101717.44
2023-02-21T20:09:52.337Z,101711.53
2023-02-21T20:14:56.056Z,101704.25
2023-02-21T20:19:58.894Z,101698.81
2023-02-21T20:25:01.416Z,101713.53
2023-02-21T20:30:05.287Z,101697.72
2023-02-21T20:35:07.250Z,101703.81
2023-02-21T20:40:10.968Z,101705.28
2023-02-21T20:45:12.522Z,101693.66
2023-02-21T20:50:20.055Z,101699.75
2023-02-21T20:55:22.478Z,101693.19
2023-02-21T21:00:24.086Z,101683.19
2023-02-21T21:05:26.270Z,101682.94
2023-02-21T21:10:27.773Z,101676.38
2023-02-21T21:15:29.277Z,101678.22
2023-02-21T21:20:30.890Z,101670.00
2023-02-21T21:25:34.538Z,101674.22
2023-02-21T21:30:37.104Z,101681.13
2023-02-21T21:35:38.714Z,101673.84
2023-02-21T21:40:40.363Z,101673.69
2023-02-21T21:45:44.426Z,101675.94
2023-02-21T21:50:46.484Z,101670.91
2023-02-21T21:55:48.027Z,101660.78
2023-02-21T22:00:49.549Z,101672.75
2023-02-21T22:05:51.251Z,101664.34
2023-02-21T22:10:53.105Z,101661.03
2023-02-21T22:15:55.484Z,101644.13
2023-02-21T22:20:57.731Z,101643.00
2023-02-21T22:25:59.214Z,101633.00
2023-02-21T22:31:00.815Z,101628.09
2023-02-21T22:36:03.677Z,101613.16
2023-02-21T22:41:05.289Z,101609.59
2023-02-21T22:46:07.746Z,101598.25
2023-02-21T22:51:09.321Z,101599.25
2023-02-21T22:56:14.874Z,101593.19
2023-02-21T23:01:20.837Z,101584.66
2023-02-21T23:06:23.174Z,101581.72
2023-02-21T23:11:24.653Z,101572.31
2023-02-21T23:16:27.687Z,101569.00
2023-02-21T23:21:30.455Z,101559.25
2023-02-21T23:26:31.941Z,101547.81
2023-02-21T23:31:33.830Z,101548.50
2023-02-21T23:36:39.201Z,101553.56
2023-02-21T23:41:42.187Z,101537.31
2023-02-21T23:46:44.857Z,101531.75
2023-02-21T23:51:46.813Z,101526.19
2023-02-21T23:56:48.892Z,101533.09
